sensor_id;sensor_type;location;lat;lon;timestamp;temperature;humidity
23591;DHT22;11973;52.098;7.582;2023-02-18T04:45:27;10.10;99.90
23591;DHT22;11973;52.098;7.582;2023-02-18T04:47:54;10.10;99.90
23591;DHT22;11973;52.098;7.582;2023-02-18T04:50:20;10.10;99.90
23591;DHT22;11973;52.098;7.582;2023-02-18T04:52:46;10.10;99.90
23591;DHT22;11973;52.098;7.582;2023-02-18T04:55:12;10.20;99.90
23591;DHT22;11973;52.098;7.582;2023-02-18T04:57:38;10.10;99.90
23591;DHT22;11973;52.098;7.582;2023-02-18T05:00:06;10.10;99.90
23591;DHT22;11973;52.098;7.582;2023-02-18T05:02:33;10.20;99.90
23591;DHT22;11973;52.098;7.582;2023-02-18T05:04:58;10.20;99.90
23591;DHT22;11973;52.098;7.582;2023-02-18T05:07:24;10.30;99.90
23591;DHT22;11973;52.098;7.582;2023-02-18T05:09:50;10.20;99.90
23591;DHT22;11973;52.098;7.582;2023-02-18T05:12:16;10.30;99.90
23591;DHT22;11973;52.098;7.582;2023-02-18T05:14:41;10.20;99.90
23591;DHT22;11973;52.098;7.582;2023-02-18T05:17:07;10.20;99.90
23591;DHT22;11973;52.098;7.582;2023-02-18T05:19:33;10.20;99.90
23591;DHT22;11973;52.098;7.582;2023-02-18T05:21:58;10.40;99.90
23591;DHT22;11973;52.098;7.582;2023-02-18T05:24:24;10.30;99.90
23591;DHT22;11973;52.098;7.582;2023-02-18T05:26:50;10.30;99.90
23591;DHT22;11973;52.098;7.582;2023-02-18T05:29:15;10.30;99.90
23591;DHT22;11973;52.098;7.582;2023-02-18T05:31:41;10.30;99.90
23591;DHT22;11973;52.098;7.582;2023-02-18T05:34:07;10.30;99.90
23591;DHT22;11973;52.098;7.582;2023-02-18T05:36:33;10.30;99.90
23591;DHT22;11973;52.098;7.582;2023-02-18T05:38:59;10.30;99.90
23591;DHT22;11973;52.098;7.582;2023-02-18T05:41:24;10.30;99.90
23591;DHT22;11973;52.098;7.582;2023-02-18T05:43:50;10.30;99.90
23591;DHT22;11973;52.098;7.582;2023-02-18T05:46:35;10.30;99.90
23591;DHT22;11973;52.098;7.582;2023-02-18T05:49:01;10.30;99.90
23591;DHT22;11973;52.098;7.582;2023-02-18T05:51:26;10.30;99.90
23591;DHT22;11973;52.098;7.582;2023-02-18T05:53:52;10.30;99.90
23591;DHT22;11973;52.098;7.582;2023-02-18T05:56:18;10.30;99.90
23591;DHT22;11973;52.098;7.582;2023-02-18T05:58:44;10.30;99.90
23591;DHT22;11973;52.098;7.582;2023-02-18T06:01:09;10.30;99.90
23591;DHT22;11973;52.098;7.582;2023-02-18T06:03:35;10.30;99.90
23591;DHT22;11973;52.098;7.582;2023-02-18T06:06:01;10.30;99.90
23591;DHT22;11973;52.098;7.582;2023-02-18T06:08:26;10.40;99.90
23591;DHT22;11973;52.098;7.582;2023-02-18T06:10:52;10.30;99.90
23591;DHT22;11973;52.098;7.582;2023-02-18T06:13:18;10.30;99.90
23591;DHT22;11973;52.098;7.582;2023-02-18T06:15:44;10.30;99.90
23591;DHT22;11973;52.098;7.582;2023-02-18T06:18:09;10.40;99.90
23591;DHT22;11973;52.098;7.582;2023-02-18T06:20:35;10.30;99.90
23591;DHT22;11973;52.098;7.582;2023-02-18T06:23:01;10.30;99.90
23591;DHT22;11973;52.098;7.582;2023-02-18T06:25:26;10.30;99.90
23591;DHT22;11973;52.098;7.582;2023-02-18T06:27:52;10.30;99.90
23591;DHT22;11973;52.098;7.582;2023-02-18T06:30:18;10.30;99.90
23591;DHT22;11973;52.098;7.582;2023-02-18T06:32:44;10.30;99.90
23591;DHT22;11973;52.098;7.582;2023-02-18T06:35:09;10.30;99.90
23591;DHT22;11973;52.098;7.582;2023-02-18T06:37:35;10.30;99.90
23591;DHT22;11973;52.098;7.582;2023-02-18T06:40:01;10.30;99.90
23591;DHT22;11973;52.098;7.582;2023-02-18T06:42:26;10.30;99.90
23591;DHT22;11973;52.098;7.582;2023-02-18T06:44:52;10.30;99.90
23591;DHT22;11973;52.098;7.582;2023-02-18T06:47:17;10.30;99.90
23591;DHT22;11973;52.098;7.582;2023-02-18T06:49:43;10.40;99.90
23591;DHT22;11973;52.098;7.582;2023-02-18T06:52:09;10.40;99.90
23591;DHT22;11973;52.098;7.582;2023-02-18T06:54:35;10.40;99.90
23591;DHT22;11973;52.098;7.582;2023-02-18T06:57:00;10.30;99.90
23591;DHT22;11973;52.098;7.582;2023-02-18T06:59:26;10.40;99.90
23591;DHT22;11973;52.098;7.582;2023-02-18T07:01:52;10.40;99.90
23591;DHT22;11973;52.098;7.582;2023-02-18T07:04:18;10.40;99.90
23591;DHT22;11973;52.098;7.582;2023-02-18T07:06:43;10.40;99.90
23591;DHT22;11973;52.098;7.582;2023-02-18T07:09:09;10.40;99.90
23591;DHT22;11973;52.098;7.582;2023-02-18T07:11:35;10.40;99.90
23591;DHT22;11973;52.098;7.582;2023-02-18T07:14:01;10.40;99.90
23591;DHT22;11973;52.098;7.582;2023-02-18T07:16:26;10.40;99.90
23591;DHT22;11973;52.098;7.582;2023-02-18T07:18:52;10.40;99.90
23591;DHT22;11973;52.098;7.582;2023-02-18T07:21:18;10.40;99.90
23591;DHT22;11973;52.098;7.582;2023-02-18T07:23:43;10.40;99.90
23591;DHT22;11973;52.098;7.582;2023-02-18T07:26:12;10.40;99.90
23591;DHT22;11973;52.098;7.582;2023-02-18T07:28:38;10.40;99.90
23591;DHT22;11973;52.098;7.582;2023-02-18T07:31:04;10.40;99.90
23591;DHT22;11973;52.098;7.582;2023-02-18T07:33:30;10.40;99.90
23591;DHT22;11973;52.098;7.582;2023-02-18T07:35:57;10.40;99.90
23591;DHT22;11973;52.098;7.582;2023-02-18T07:38:24;10.40;99.90
23591;DHT22;11973;52.098;7.582;2023-02-18T07:40:50;10.50;99.90
23591;DHT22;11973;52.098;7.582;2023-02-18T07:43:17;10.50;99.90
23591;DHT22;11973;52.098;7.582;2023-02-18T07:45:43;10.50;99.90
23591;DHT22;11973;52.098;7.582;2023-02-18T07:48:08;10.50;99.90
23591;DHT22;11973;52.098;7.582;2023-02-18T07:50:35;10.50;99.90
23591;DHT22;11973;52.098;7.582;2023-02-18T07:53:03;10.50;99.90
23591;DHT22;11973;52.098;7.582;2023-02-18T07:55:30;10.50;99.90
23591;DHT22;11973;52.098;7.582;2023-02-18T07:58:15;10.50;99.90
23591;DHT22;11973;52.098;7.582;2023-02-18T08:00:41;10.50;99.90
23591;DHT22;11973;52.098;7.582;2023-02-18T08:03:07;10.50;99.90
23591;DHT22;11973;52.098;7.582;2023-02-18T08:05:32;10.50;99.90
23591;DHT22;11973;52.098;7.582;2023-02-18T08:07:58;10.50;99.90
23591;DHT22;11973;52.098;7.582;2023-02-18T08:10:24;10.50;99.90
23591;DHT22;11973;52.098;7.582;2023-02-18T08:12:49;10.70;99.90
23591;DHT22;11973;52.098;7.582;2023-02-18T08:15:15;10.50;99.90
23591;DHT22;11973;52.098;7.582;2023-02-18T08:17:41;10.60;99.90
23591;DHT22;11973;52.098;7.582;2023-02-18T08:20:07;10.60;99.90
23591;DHT22;11973;52.098;7.582;2023-02-18T08:22:33;10.60;99.90
23591;DHT22;11973;52.098;7.582;2023-02-18T08:24:58;10.60;99.90
23591;DHT22;11973;52.098;7.582;2023-02-18T08:27:24;10.60;99.90
23591;DHT22;11973;52.098;7.582;2023-02-18T08:29:50;10.60;99.90
23591;DHT22;11973;52.098;7.582;2023-02-18T08:32:16;10.60;99.90
23591;DHT22;11973;52.098;7.582;2023-02-18T08:34:42;10.60;99.90
23591;DHT22;11973;52.098;7.582;2023-02-18T08:37:08;10.50;99.90
23591;DHT22;11973;52.098;7.582;2023-02-18T08:39:34;10.50;99.90
23591;DHT22;11973;52.098;7.582;2023-02-18T08:42:00;10.50;99.90
23591;DHT22;11973;52.098;7.582;2023-02-18T08:44:26;10.60;99.90
23591;DHT22;11973;52.098;7.582;2023-02-18T08:46:52;10.60;99.90
23591;DHT22;11973;52.098;7.582;2023-02-18T08:49:18;10.60;99.90
23591;DHT22;11973;52.098;7.582;2023-02-18T08:51:46;10.60;99.90
23591;DHT22;11973;52.098;7.582;2023-02-18T08:54:12;10.70;99.90
23591;DHT22;11973;52.098;7.582;2023-02-18T08:56:38;10.70;99.90
23591;DHT22;11973;52.098;7.582;2023-02-18T08:59:04;10.60;99.90
23591;DHT22;11973;52.098;7.582;2023-02-18T09:01:30;10.60;99.90
23591;DHT22;11973;52.098;7.582;2023-02-18T09:03:56;10.60;99.90
23591;DHT22;11973;52.098;7.582;2023-02-18T09:06:22;10.60;99.90
23591;DHT22;11973;52.098;7.582;2023-02-18T09:08:48;10.70;99.90
23591;DHT22;11973;52.098;7.582;2023-02-18T09:11:15;10.70;99.90
23591;DHT22;11973;52.098;7.582;2023-02-18T09:13:40;10.80;99.90
23591;DHT22;11973;52.098;7.582;2023-02-18T09:16:10;10.70;99.90
23591;DHT22;11973;52.098;7.582;2023-02-18T09:18:36;10.80;99.90
23591;DHT22;11973;52.098;7.582;2023-02-18T09:21:04;10.80;99.90
23591;DHT22;11973;52.098;7.582;2023-02-18T09:23:31;10.80;99.90
23591;DHT22;11973;52.098;7.582;2023-02-18T09:25:57;10.80;99.90
23591;DHT22;11973;52.098;7.582;2023-02-18T09:28:23;10.80;99.90
23591;DHT22;11973;52.098;7.582;2023-02-18T09:30:49;10.80;99.90
23591;DHT22;11973;52.098;7.582;2023-02-18T09:33:16;10.90;99.90
23591;DHT22;11973;52.098;7.582;2023-02-18T09:35:43;10.80;99.90
23591;DHT22;11973;52.098;7.582;2023-02-18T09:38:11;10.90;99.90
23591;DHT22;11973;52.098;7.582;2023-02-18T09:40:41;10.90;99.90
23591;DHT22;11973;52.098;7.582;2023-02-18T09:45:58;10.80;99.90
23591;DHT22;11973;52.098;7.582;2023-02-18T09:48:27;10.70;99.90
23591;DHT22;11973;52.098;7.582;2023-02-18T09:50:55;10.70;99.90
23591;DHT22;11973;52.098;7.582;2023-02-18T09:53:23;10.70;99.90
23591;DHT22;11973;52.098;7.582;2023-02-18T09:55:50;10.70;99.90
23591;DHT22;11973;52.098;7.582;2023-02-18T09:58:24;10.70;99.90
23591;DHT22;11973;52.098;7.582;2023-02-18T10:01:04;10.70;99.90
23591;DHT22;11973;52.098;7.582;2023-02-18T10:03:31;10.60;99.90
23591;DHT22;11973;52.098;7.582;2023-02-18T10:06:00;10.60;99.90
23591;DHT22;11973;52.098;7.582;2023-02-18T10:08:35;10.70;99.90
23591;DHT22;11973;52.098;7.582;2023-02-18T10:11:01;10.60;99.90
23591;DHT22;11973;52.098;7.582;2023-02-18T10:13:31;10.60;99.90
23591;DHT22;11973;52.098;7.582;2023-02-18T10:15:57;10.60;99.90
23591;DHT22;11973;52.098;7.582;2023-02-18T10:18:30;10.60;99.90
23591;DHT22;11973;52.098;7.582;2023-02-18T10:21:06;10.60;99.90
23591;DHT22;11973;52.098;7.582;2023-02-18T10:23:36;10.60;99.90
23591;DHT22;11973;52.098;7.582;2023-02-18T10:26:06;10.60;99.90
23591;DHT22;11973;52.098;7.582;2023-02-18T10:28:33;10.50;99.90
23591;DHT22;11973;52.098;7.582;2023-02-18T10:31:04;10.60;99.90
23591;DHT22;11973;52.098;7.582;2023-02-18T10:41:51;10.50;99.90
23591;DHT22;11973;52.098;7.582;2023-02-18T10:52:21;10.50;99.90
23591;DHT22;11973;52.098;7.582;2023-02-18T10:54:49;10.50;99.90
23591;DHT22;11973;52.098;7.582;2023-02-18T10:57:21;10.50;99.90
23591;DHT22;11973;52.098;7.582;2023-02-18T11:02:37;10.40;99.90
23591;DHT22;11973;52.098;7.582;2023-02-18T11:05:25;10.40;99.90
23591;DHT22;11973;52.098;7.582;2023-02-18T11:07:53;10.40;99.90
23591;DHT22;11973;52.098;7.582;2023-02-18T11:10:32;10.40;99.90
23591;DHT22;11973;52.098;7.582;2023-02-18T11:13:02;10.50;99.90
23591;DHT22;11973;52.098;7.582;2023-02-18T11:15:30;10.40;99.90
23591;DHT22;11973;52.098;7.582;2023-02-18T11:17:58;10.40;99.90
23591;DHT22;11973;52.098;7.582;2023-02-18T11:20:37;10.40;99.90
23591;DHT22;11973;52.098;7.582;2023-02-18T11:25:38;10.40;99.90
23591;DHT22;11973;52.098;7.582;2023-02-18T11:30:45;10.40;99.90
23591;DHT22;11973;52.098;7.582;2023-02-18T11:33:23;10.40;99.90
23591;DHT22;11973;52.098;7.582;2023-02-18T11:35:55;10.40;99.90
23591;DHT22;11973;52.098;7.582;2023-02-18T11:38:33;10.40;99.90
23591;DHT22;11973;52.098;7.582;2023-02-18T11:41:09;10.40;99.90
23591;DHT22;11973;52.098;7.582;2023-02-18T11:43:35;10.40;99.90
23591;DHT22;11973;52.098;7.582;2023-02-18T11:46:18;10.40;99.90
23591;DHT22;11973;52.098;7.582;2023-02-18T11:48:45;10.40;99.90
23591;DHT22;11973;52.098;7.582;2023-02-18T11:51:33;10.40;99.90
23591;DHT22;11973;52.098;7.582;2023-02-18T11:54:03;10.40;99.90
23591;DHT22;11973;52.098;7.582;2023-02-18T11:56:34;10.30;99.90
23591;DHT22;11973;52.098;7.582;2023-02-18T11:59:02;10.30;99.90
23591;DHT22;11973;52.098;7.582;2023-02-18T12:01:50;10.30;99.90
23591;DHT22;11973;52.098;7.582;2023-02-18T12:04:26;10.30;99.90
23591;DHT22;11973;52.098;7.582;2023-02-18T12:07:14;10.30;99.90
23591;DHT22;11973;52.098;7.582;2023-02-18T12:09:51;10.30;99.90
23591;DHT22;11973;52.098;7.582;2023-02-18T12:12:43;10.30;99.90
23591;DHT22;11973;52.098;7.582;2023-02-18T12:15:16;10.40;99.90
23591;DHT22;11973;52.098;7.582;2023-02-18T12:29:08;10.50;99.90
23591;DHT22;11973;52.098;7.582;2023-02-18T12:40:26;10.60;99.90
23591;DHT22;11973;52.098;7.582;2023-02-18T12:43:18;10.60;99.90
23591;DHT22;11973;52.098;7.582;2023-02-18T12:51:16;10.60;99.90
23591;DHT22;11973;52.098;7.582;2023-02-18T13:04:46;10.60;99.90
23591;DHT22;11973;52.098;7.582;2023-02-18T13:18:27;10.70;99.90
23591;DHT22;11973;52.098;7.582;2023-02-18T13:21:03;10.80;99.90
23591;DHT22;11973;52.098;7.582;2023-02-18T13:23:34;10.80;99.90
23591;DHT22;11973;52.098;7.582;2023-02-18T13:26:04;10.80;99.90
23591;DHT22;11973;52.098;7.582;2023-02-18T13:34:47;10.90;99.90
23591;DHT22;11973;52.098;7.582;2023-02-18T13:37:22;10.90;99.90
23591;DHT22;11973;52.098;7.582;2023-02-18T13:39:56;10.90;99.90
23591;DHT22;11973;52.098;7.582;2023-02-18T13:47:42;10.90;99.90
23591;DHT22;11973;52.098;7.582;2023-02-18T13:50:29;10.90;99.90
23591;DHT22;11973;52.098;7.582;2023-02-18T13:55:47;11.00;99.90
23591;DHT22;11973;52.098;7.582;2023-02-18T13:58:19;10.90;99.90
23591;DHT22;11973;52.098;7.582;2023-02-18T14:06:04;11.00;99.90
23591;DHT22;11973;52.098;7.582;2023-02-18T14:08:39;10.90;99.90
23591;DHT22;11973;52.098;7.582;2023-02-18T14:13:53;11.00;99.90
23591;DHT22;11973;52.098;7.582;2023-02-18T14:16:20;11.00;99.90
23591;DHT22;11973;52.098;7.582;2023-02-18T14:31:44;11.20;99.90
23591;DHT22;11973;52.098;7.582;2023-02-18T14:36:56;11.20;99.90
23591;DHT22;11973;52.098;7.582;2023-02-18T14:39:36;11.30;99.90
23591;DHT22;11973;52.098;7.582;2023-02-18T14:42:11;11.30;99.90
23591;DHT22;11973;52.098;7.582;2023-02-18T14:50:17;11.40;99.90
23591;DHT22;11973;52.098;7.582;2023-02-18T14:55:27;11.40;99.90
23591;DHT22;11973;52.098;7.582;2023-02-18T14:58:25;11.40;99.90
23591;DHT22;11973;52.098;7.582;2023-02-18T15:00:47;11.40;99.90
23591;DHT22;11973;52.098;7.582;2023-02-18T15:03:15;11.40;99.90
23591;DHT22;11973;52.098;7.582;2023-02-18T15:05:42;11.40;99.90
23591;DHT22;11973;52.098;7.582;2023-02-18T15:08:17;11.50;99.90
23591;DHT22;11973;52.098;7.582;2023-02-18T15:11:00;11.40;99.90
23591;DHT22;11973;52.098;7.582;2023-02-18T15:13:33;11.40;99.90
23591;DHT22;11973;52.098;7.582;2023-02-18T15:16:06;11.40;99.90
23591;DHT22;11973;52.098;7.582;2023-02-18T15:19:11;11.40;99.90
23591;DHT22;11973;52.098;7.582;2023-02-18T15:21:36;11.40;99.90
23591;DHT22;11973;52.098;7.582;2023-02-18T15:24:23;11.40;99.90
23591;DHT22;11973;52.098;7.582;2023-02-18T15:26:52;11.40;99.90
23591;DHT22;11973;52.098;7.582;2023-02-18T15:29:21;11.40;99.90
23591;DHT22;11973;52.098;7.582;2023-02-18T15:31:48;11.40;99.90
23591;DHT22;11973;52.098;7.582;2023-02-18T15:36:54;11.40;99.90
23591;DHT22;11973;52.098;7.582;2023-02-18T15:39:20;11.40;99.90
23591;DHT22;11973;52.098;7.582;2023-02-18T15:41:51;11.40;99.90
23591;DHT22;11973;52.098;7.582;2023-02-18T15:44:27;11.30;99.90
23591;DHT22;11973;52.098;7.582;2023-02-18T15:46:53;11.30;99.90
23591;DHT22;11973;52.098;7.582;2023-02-18T15:49:22;11.30;99.90
23591;DHT22;11973;52.098;7.582;2023-02-18T15:51:49;11.30;99.90
23591;DHT22;11973;52.098;7.582;2023-02-18T15:54:20;11.30;99.90
23591;DHT22;11973;52.098;7.582;2023-02-18T15:56:50;11.30;99.90
23591;DHT22;11973;52.098;7.582;2023-02-18T15:59:19;11.20;99.90
23591;DHT22;11973;52.098;7.582;2023-02-18T16:01:49;11.20;99.90
23591;DHT22;11973;52.098;7.582;2023-02-18T16:04:15;11.20;99.90
23591;DHT22;11973;52.098;7.582;2023-02-18T16:06:52;11.20;99.90
23591;DHT22;11973;52.098;7.582;2023-02-18T16:09:23;11.20;99.90
23591;DHT22;11973;52.098;7.582;2023-02-18T16:11:55;11.20;99.90
23591;DHT22;11973;52.098;7.582;2023-02-18T16:14:45;11.10;99.90
23591;DHT22;11973;52.098;7.582;2023-02-18T16:19:52;11.10;99.90
23591;DHT22;11973;52.098;7.582;2023-02-18T16:24:58;11.10;99.90
23591;DHT22;11973;52.098;7.582;2023-02-18T16:27:30;11.10;99.90
23591;DHT22;11973;52.098;7.582;2023-02-18T16:30:00;11.10;99.90
23591;DHT22;11973;52.098;7.582;2023-02-18T16:32:27;11.00;99.90
23591;DHT22;11973;52.098;7.582;2023-02-18T16:34:53;11.00;99.90
23591;DHT22;11973;52.098;7.582;2023-02-18T16:37:18;11.00;99.90
23591;DHT22;11973;52.098;7.582;2023-02-18T16:40:13;11.00;99.90
23591;DHT22;11973;52.098;7.582;2023-02-18T16:42:41;11.00;99.90
23591;DHT22;11973;52.098;7.582;2023-02-18T16:45:11;11.00;99.90
23591;DHT22;11973;52.098;7.582;2023-02-18T16:47:37;11.00;99.90
23591;DHT22;11973;52.098;7.582;2023-02-18T16:50:04;11.00;99.90
23591;DHT22;11973;52.098;7.582;2023-02-18T16:52:30;11.00;99.90
23591;DHT22;11973;52.098;7.582;2023-02-18T16:54:56;11.00;99.90
23591;DHT22;11973;52.098;7.582;2023-02-18T16:57:21;10.90;99.90
23591;DHT22;11973;52.098;7.582;2023-02-18T16:59:47;10.90;99.90
23591;DHT22;11973;52.098;7.582;2023-02-18T17:02:19;10.90;99.90
23591;DHT22;11973;52.098;7.582;2023-02-18T17:04:46;10.80;99.90
23591;DHT22;11973;52.098;7.582;2023-02-18T17:07:12;10.80;99.90
23591;DHT22;11973;52.098;7.582;2023-02-18T17:09:37;10.70;99.90
23591;DHT22;11973;52.098;7.582;2023-02-18T17:12:03;10.70;99.90
23591;DHT22;11973;52.098;7.582;2023-02-18T17:14:29;10.60;99.90
23591;DHT22;11973;52.098;7.582;2023-02-18T17:16:56;10.60;99.90
23591;DHT22;11973;52.098;7.582;2023-02-18T17:19:22;10.60;99.90
23591;DHT22;11973;52.098;7.582;2023-02-18T17:21:48;10.50;99.90
23591;DHT22;11973;52.098;7.582;2023-02-18T17:24:15;10.50;99.90
23591;DHT22;11973;52.098;7.582;2023-02-18T17:26:42;10.60;99.90
23591;DHT22;11973;52.098;7.582;2023-02-18T17:29:07;10.40;99.90
23591;DHT22;11973;52.098;7.582;2023-02-18T17:31:37;10.40;99.90
23591;DHT22;11973;52.098;7.582;2023-02-18T17:34:06;10.40;99.90
23591;DHT22;11973;52.098;7.582;2023-02-18T17:36:32;10.40;99.90
23591;DHT22;11973;52.098;7.582;2023-02-18T17:38:58;10.40;99.90
23591;DHT22;11973;52.098;7.582;2023-02-18T17:41:24;10.40;99.90
23591;DHT22;11973;52.098;7.582;2023-02-18T17:43:50;10.40;99.90
23591;DHT22;11973;52.098;7.582;2023-02-18T17:46:17;10.30;99.90
23591;DHT22;11973;52.098;7.582;2023-02-18T17:48:44;10.40;99.90
23591;DHT22;11973;52.098;7.582;2023-02-18T17:51:25;10.30;99.90
23591;DHT22;11973;52.098;7.582;2023-02-18T17:53:50;10.30;99.90
23591;DHT22;11973;52.098;7.582;2023-02-18T17:56:16;10.30;99.90
23591;DHT22;11973;52.098;7.582;2023-02-18T17:58:42;10.30;99.90
23591;DHT22;11973;52.098;7.582;2023-02-18T18:01:09;10.30;99.90
23591;DHT22;11973;52.098;7.582;2023-02-18T18:03:35;10.30;99.90
23591;DHT22;11973;52.098;7.582;2023-02-18T18:06:01;10.30;99.90
23591;DHT22;11973;52.098;7.582;2023-02-18T18:08:29;10.30;99.90
23591;DHT22;11973;52.098;7.582;2023-02-18T18:10:58;10.30;99.90
23591;DHT22;11973;52.098;7.582;2023-02-18T18:13:31;10.30;99.90
23591;DHT22;11973;52.098;7.582;2023-02-18T18:15:58;10.30;99.90
23591;DHT22;11973;52.098;7.582;2023-02-18T18:18:25;10.40;99.90
23591;DHT22;11973;52.098;7.582;2023-02-18T18:20:56;10.30;99.90
23591;DHT22;11973;52.098;7.582;2023-02-18T18:23:23;10.40;99.90
23591;DHT22;11973;52.098;7.582;2023-02-18T18:25:53;10.30;99.90
23591;DHT22;11973;52.098;7.582;2023-02-18T18:28:21;10.30;99.90
23591;DHT22;11973;52.098;7.582;2023-02-18T18:30:49;10.30;99.90
23591;DHT22;11973;52.098;7.582;2023-02-18T18:35:41;10.30;99.90
23591;DHT22;11973;52.098;7.582;2023-02-18T18:38:07;10.30;99.90
23591;DHT22;11973;52.098;7.582;2023-02-18T18:40:33;10.30;99.90
23591;DHT22;11973;52.098;7.582;2023-02-18T18:43:00;10.20;99.90
23591;DHT22;11973;52.098;7.582;2023-02-18T18:45:29;10.30;99.90
23591;DHT22;11973;52.098;7.582;2023-02-18T18:47:55;10.30;99.90
23591;DHT22;11973;52.098;7.582;2023-02-18T18:50:21;10.30;99.90
23591;DHT22;11973;52.098;7.582;2023-02-18T18:52:49;10.30;99.90
23591;DHT22;11973;52.098;7.582;2023-02-18T18:55:36;10.30;99.90
23591;DHT22;11973;52.098;7.582;2023-02-18T18:58:03;10.30;99.90
23591;DHT22;11973;52.098;7.582;2023-02-18T19:00:35;10.20;99.90
23591;DHT22;11973;52.098;7.582;2023-02-18T19:03:02;10.30;99.90
23591;DHT22;11973;52.098;7.582;2023-02-18T19:05:34;10.30;99.90
23591;DHT22;11973;52.098;7.582;2023-02-18T19:08:02;10.20;99.90
23591;DHT22;11973;52.098;7.582;2023-02-18T19:10:31;10.30;99.90
23591;DHT22;11973;52.098;7.582;2023-02-18T19:13:06;10.30;99.90
23591;DHT22;11973;52.098;7.582;2023-02-18T19:15:33;10.30;99.90
23591;DHT22;11973;52.098;7.582;2023-02-18T19:18:00;10.30;99.90
23591;DHT22;11973;52.098;7.582;2023-02-18T19:20:31;10.30;99.90
23591;DHT22;11973;52.098;7.582;2023-02-18T19:22:57;10.20;99.90
23591;DHT22;11973;52.098;7.582;2023-02-18T19:25:23;10.30;99.90
23591;DHT22;11973;52.098;7.582;2023-02-18T19:27:50;10.30;99.90
23591;DHT22;11973;52.098;7.582;2023-02-18T19:30:28;10.20;99.90
23591;DHT22;11973;52.098;7.582;2023-02-18T19:32:56;10.20;99.90
23591;DHT22;11973;52.098;7.582;2023-02-18T19:35:24;10.20;99.90
23591;DHT22;11973;52.098;7.582;2023-02-18T19:37:50;10.20;99.90
23591;DHT22;11973;52.098;7.582;2023-02-18T19:40:18;10.20;99.90
23591;DHT22;11973;52.098;7.582;2023-02-18T19:42:44;10.20;99.90
23591;DHT22;11973;52.098;7.582;2023-02-18T19:45:10;10.20;99.90
23591;DHT22;11973;52.098;7.582;2023-02-18T19:47:36;10.20;99.90
23591;DHT22;11973;52.098;7.582;2023-02-18T19:50:03;10.20;99.90
23591;DHT22;11973;52.098;7.582;2023-02-18T19:52:29;10.20;99.90
23591;DHT22;11973;52.098;7.582;2023-02-18T19:54:55;10.20;99.90
23591;DHT22;11973;52.098;7.582;2023-02-18T19:57:21;10.20;99.90
23591;DHT22;11973;52.098;7.582;2023-02-18T19:59:47;10.20;99.90
23591;DHT22;11973;52.098;7.582;2023-02-18T20:02:16;10.20;99.90
23591;DHT22;11973;52.098;7.582;2023-02-18T20:04:42;10.20;99.90
23591;DHT22;11973;52.098;7.582;2023-02-18T20:07:08;10.30;99.90
23591;DHT22;11973;52.098;7.582;2023-02-18T20:09:34;10.30;99.90
23591;DHT22;11973;52.098;7.582;2023-02-18T20:12:00;10.20;99.90
23591;DHT22;11973;52.098;7.582;2023-02-18T20:14:26;10.30;99.90
23591;DHT22;11973;52.098;7.582;2023-02-18T20:16:54;10.30;99.90
23591;DHT22;11973;52.098;7.582;2023-02-18T20:19:20;10.30;99.90
23591;DHT22;11973;52.098;7.582;2023-02-18T20:21:48;10.30;99.90
23591;DHT22;11973;52.098;7.582;2023-02-18T20:24:14;10.30;99.90
23591;DHT22;11973;52.098;7.582;2023-02-18T20:26:40;10.30;99.90
23591;DHT22;11973;52.098;7.582;2023-02-18T20:29:06;10.30;99.90
23591;DHT22;11973;52.098;7.582;2023-02-18T20:31:31;10.30;99.90
23591;DHT22;11973;52.098;7.582;2023-02-18T20:33:57;10.30;99.90
23591;DHT22;11973;52.098;7.582;2023-02-18T20:36:24;10.30;99.90
23591;DHT22;11973;52.098;7.582;2023-02-18T20:38:50;10.30;99.90
23591;DHT22;11973;52.098;7.582;2023-02-18T20:41:17;10.40;99.90
23591;DHT22;11973;52.098;7.582;2023-02-18T20:43:44;10.30;99.90
23591;DHT22;11973;52.098;7.582;2023-02-18T20:46:12;10.30;99.90
23591;DHT22;11973;52.098;7.582;2023-02-18T20:48:38;10.40;99.90
23591;DHT22;11973;52.098;7.582;2023-02-18T20:51:09;10.30;99.90
23591;DHT22;11973;52.098;7.582;2023-02-18T20:53:35;10.30;99.90
23591;DHT22;11973;52.098;7.582;2023-02-18T20:56:02;10.30;99.90
23591;DHT22;11973;52.098;7.582;2023-02-18T20:58:28;10.30;99.90
23591;DHT22;11973;52.098;7.582;2023-02-18T21:00:58;10.30;99.90
23591;DHT22;11973;52.098;7.582;2023-02-18T21:03:25;10.30;99.90
23591;DHT22;11973;52.098;7.582;2023-02-18T21:05:58;10.30;99.90
23591;DHT22;11973;52.098;7.582;2023-02-18T21:08:24;10.30;99.90
23591;DHT22;11973;52.098;7.582;2023-02-18T21:10:51;10.20;99.90
23591;DHT22;11973;52.098;7.582;2023-02-18T21:13:18;10.20;99.90
23591;DHT22;11973;52.098;7.582;2023-02-18T21:15:45;10.20;99.90
23591;DHT22;11973;52.098;7.582;2023-02-18T21:18:11;10.20;99.90
23591;DHT22;11973;52.098;7.582;2023-02-18T21:20:37;10.20;99.90
23591;DHT22;11973;52.098;7.582;2023-02-18T21:23:02;10.20;99.90
23591;DHT22;11973;52.098;7.582;2023-02-18T21:25:32;10.10;99.90
23591;DHT22;11973;52.098;7.582;2023-02-18T21:27:58;10.10;99.90
23591;DHT22;11973;52.098;7.582;2023-02-18T21:30:24;10.10;99.90
23591;DHT22;11973;52.098;7.582;2023-02-18T21:32:56;10.10;99.90
23591;DHT22;11973;52.098;7.582;2023-02-18T21:35:23;10.10;99.90
23591;DHT22;11973;52.098;7.582;2023-02-18T21:37:50;10.10;99.90
23591;DHT22;11973;52.098;7.582;2023-02-18T21:40:16;10.00;99.90
23591;DHT22;11973;52.098;7.582;2023-02-18T21:42:42;10.00;99.90
23591;DHT22;11973;52.098;7.582;2023-02-18T21:45:08;10.00;99.90
23591;DHT22;11973;52.098;7.582;2023-02-18T21:47:37;10.00;99.90
23591;DHT22;11973;52.098;7.582;2023-02-18T21:50:04;10.00;99.90
23591;DHT22;11973;52.098;7.582;2023-02-18T21:52:30;9.90;99.90
23591;DHT22;11973;52.098;7.582;2023-02-18T21:54:57;10.00;99.90
23591;DHT22;11973;52.098;7.582;2023-02-18T21:57:23;10.00;99.90
23591;DHT22;11973;52.098;7.582;2023-02-18T21:59:50;9.90;99.90
23591;DHT22;11973;52.098;7.582;2023-02-18T22:02:18;9.90;99.90
23591;DHT22;11973;52.098;7.582;2023-02-18T22:04:44;9.90;99.90
23591;DHT22;11973;52.098;7.582;2023-02-18T22:07:11;9.90;99.90
23591;DHT22;11973;52.098;7.582;2023-02-18T22:09:37;9.90;99.90
23591;DHT22;11973;52.098;7.582;2023-02-18T22:12:04;9.90;99.90
23591;DHT22;11973;52.098;7.582;2023-02-18T22:14:30;9.90;99.90
23591;DHT22;11973;52.098;7.582;2023-02-18T22:16:56;9.90;99.90
23591;DHT22;11973;52.098;7.582;2023-02-18T22:19:21;9.90;99.90
23591;DHT22;11973;52.098;7.582;2023-02-18T22:21:47;9.90;99.90
23591;DHT22;11973;52.098;7.582;2023-02-18T22:24:14;9.90;99.90
23591;DHT22;11973;52.098;7.582;2023-02-18T22:26:41;9.90;99.90
23591;DHT22;11973;52.098;7.582;2023-02-18T22:29:09;9.90;99.90
23591;DHT22;11973;52.098;7.582;2023-02-18T22:31:35;9.90;99.90
23591;DHT22;11973;52.098;7.582;2023-02-18T22:34:01;9.90;99.90
23591;DHT22;11973;52.098;7.582;2023-02-18T22:36:27;9.90;99.90